createdAt,value
2018-02-03T00:00:29.301Z,4.14
2018-02-03T00:01:29.277Z,4.15
2018-02-03T00:02:29.263Z,4.09
2018-02-03T00:03:29.243Z,4.02
2018-02-03T00:04:29.242Z,4.08
2018-02-03T00:05:29.200Z,3.97
2018-02-03T00:06:29.183Z,3.98
2018-02-03T00:07:29.171Z,3.96
2018-02-03T00:08:29.153Z,4.02
2018-02-03T00:09:29.137Z,4.04
2018-02-03T00:10:29.135Z,4.04
2018-02-03T00:11:29.095Z,4.04
2018-02-03T00:12:29.075Z,4.00
2018-02-03T00:13:29.053Z,4.00
2018-02-03T00:14:29.036Z,3.98
2018-02-03T00:15:29.033Z,4.06
2018-02-03T00:16:29.044Z,4.08
2018-02-03T00:17:28.998Z,3.96
2018-02-03T00:18:28.983Z,4.02
2018-02-03T00:19:28.953Z,3.98
2018-02-03T00:20:28.928Z,4.12
2018-02-03T00:21:28.927Z,4.16
2018-02-03T00:22:28.894Z,4.11
2018-02-03T00:23:28.875Z,3.98
2018-02-03T00:24:28.858Z,4.02
2018-02-03T00:25:28.834Z,4.16
2018-02-03T00:26:28.829Z,4.11
2018-02-03T00:27:28.826Z,4.08
2018-02-03T00:28:28.783Z,4.12
2018-02-03T00:29:28.781Z,4.06
2018-02-03T00:30:28.744Z,4.18
2018-02-03T00:31:28.726Z,4.11
2018-02-03T00:32:28.706Z,4.04
2018-02-03T00:33:28.690Z,4.15
2018-02-03T00:34:28.699Z,4.06
2018-02-03T00:35:28.652Z,4.04
2018-02-03T00:36:28.631Z,3.97
2018-02-03T00:37:28.634Z,4.06
2018-02-03T00:38:28.604Z,4.00
2018-02-03T00:39:28.579Z,4.04
2018-02-03T00:40:28.558Z,3.97
2018-02-03T00:41:28.547Z,4.05
2018-02-03T00:42:28.535Z,4.06
2018-02-03T00:43:28.505Z,4.04
2018-02-03T00:44:28.489Z,4.06
2018-02-03T00:45:28.483Z,3.96
2018-02-03T00:46:28.449Z,3.98
2018-02-03T00:47:28.431Z,4.02
2018-02-03T00:48:28.416Z,3.94
2018-02-03T00:49:28.400Z,4.05
2018-02-03T00:50:28.381Z,3.98
2018-02-03T00:51:28.377Z,3.94
2018-02-03T00:52:28.342Z,3.97
2018-02-03T00:53:28.320Z,3.94
2018-02-03T00:54:28.311Z,3.96
2018-02-03T00:55:28.281Z,4.00
2018-02-03T00:56:28.284Z,3.93
2018-02-03T00:57:28.251Z,4.02
2018-02-03T00:58:28.234Z,4.05
2018-02-03T00:59:28.212Z,3.96
2018-02-03T01:00:28.211Z,3.93
2018-02-03T01:01:28.192Z,4.02
2018-02-03T01:02:28.159Z,3.96
2018-02-03T01:03:28.150Z,3.93
2018-02-03T01:04:28.138Z,3.98
2018-02-03T01:05:28.102Z,3.93
2018-02-03T01:06:28.085Z,3.97
2018-02-03T01:07:28.084Z,3.88
2018-02-03T01:08:28.054Z,3.88
2018-02-03T01:09:28.027Z,3.97
2018-02-03T01:10:28.014Z,3.88
2018-02-03T01:11:27.996Z,3.94
2018-02-03T01:12:27.990Z,3.96
2018-02-03T01:13:27.952Z,3.98
2018-02-03T01:14:27.943Z,3.98
2018-02-03T01:15:27.930Z,3.98
2018-02-03T01:16:27.905Z,3.94
2018-02-03T01:17:27.883Z,3.94
2018-02-03T01:18:27.881Z,4.04
2018-02-03T01:19:27.843Z,3.98
2018-02-03T01:20:27.825Z,3.98
2018-02-03T01:21:27.817Z,4.02
2018-02-03T01:22:27.794Z,4.00
2018-02-03T01:23:27.788Z,4.04
2018-02-03T01:24:27.753Z,4.05
2018-02-03T01:25:27.736Z,3.94
2018-02-03T01:26:27.726Z,3.94
2018-02-03T01:27:27.702Z,3.97
2018-02-03T01:28:27.680Z,3.94
2018-02-03T01:29:27.678Z,3.94
2018-02-03T01:30:27.652Z,3.93
2018-02-03T01:31:27.628Z,3.97
2018-02-03T01:32:27.613Z,3.96
2018-02-03T01:33:27.593Z,3.97
2018-02-03T01:34:27.587Z,3.91
2018-02-03T01:35:27.556Z,3.90
2018-02-03T01:36:27.530Z,3.90
2018-02-03T01:37:27.521Z,3.91
2018-02-03T01:38:27.498Z,3.88
2018-02-03T01:39:27.497Z,3.97
2018-02-03T01:40:27.459Z,3.90
2018-02-03T01:41:27.444Z,3.96
2018-02-03T01:42:27.422Z,3.94
2018-02-03T01:43:27.406Z,3.88
2018-02-03T01:44:27.406Z,3.93
2018-02-03T01:45:27.368Z,3.84
2018-02-03T01:46:27.348Z,3.88
2018-02-03T01:47:27.334Z,3.88
2018-02-03T01:48:27.318Z,3.88
2018-02-03T01:49:27.332Z,3.88
2018-02-03T01:50:27.276Z,3.84
2018-02-03T01:51:27.273Z,3.83
2018-02-03T01:52:27.238Z,3.87
2018-02-03T01:53:27.222Z,3.84
2018-02-03T01:54:27.210Z,3.80
2018-02-03T01:55:27.183Z,3.86
2018-02-03T01:56:27.240Z,3.87
2018-02-03T01:57:27.151Z,3.83
2018-02-03T01:58:27.130Z,3.78
2018-02-03T01:59:27.107Z,3.79
2018-02-03T02:00:27.095Z,3.79
2018-02-03T02:01:27.071Z,3.83
2018-02-03T02:02:27.075Z,3.84
2018-02-03T02:03:27.039Z,3.78
2018-02-03T02:04:27.021Z,3.79
2018-02-03T02:05:26.999Z,3.83
2018-02-03T02:06:26.979Z,3.83
2018-02-03T02:07:26.980Z,3.78
2018-02-03T02:08:26.944Z,3.79
2018-02-03T02:09:26.925Z,3.84
2018-02-03T02:10:26.908Z,3.84
2018-02-03T02:11:26.891Z,3.87
2018-02-03T02:12:26.870Z,3.84
2018-02-03T02:13:26.870Z,3.88
2018-02-03T02:14:26.836Z,3.84
2018-02-03T02:15:26.817Z,3.79
2018-02-03T02:16:26.799Z,3.80
2018-02-03T02:17:26.774Z,3.79
2018-02-03T02:18:26.774Z,3.87
2018-02-03T02:19:26.743Z,3.88
2018-02-03T02:20:26.720Z,3.86
2018-02-03T02:21:26.712Z,3.86
2018-02-03T02:22:26.706Z,3.83
2018-02-03T02:23:26.683Z,3.91
2018-02-03T02:24:26.660Z,3.80
2018-02-03T02:25:26.632Z,3.86
2018-02-03T02:26:26.617Z,3.87
2018-02-03T02:27:26.593Z,3.86
2018-02-03T02:28:26.590Z,3.79
2018-02-03T02:29:26.573Z,3.86
2018-02-03T02:30:26.536Z,3.83
2018-02-03T02:31:26.522Z,3.83
2018-02-03T02:32:26.497Z,3.87
2018-02-03T02:33:26.484Z,3.87
2018-02-03T02:34:26.477Z,3.79
2018-02-03T02:35:26.445Z,3.79
2018-02-03T02:36:26.430Z,3.94
2018-02-03T02:37:26.410Z,4.00
2018-02-03T02:38:26.394Z,3.94
2018-02-03T02:39:26.390Z,3.97
2018-02-03T02:40:26.367Z,3.88
2018-02-03T02:41:26.335Z,3.93
2018-02-03T02:42:26.318Z,3.84
2018-02-03T02:43:26.296Z,3.83
2018-02-03T02:44:26.280Z,3.84
2018-02-03T02:45:26.261Z,3.79
2018-02-03T02:46:26.255Z,3.78
2018-02-03T02:47:26.221Z,3.79
2018-02-03T02:48:26.206Z,3.80
2018-02-03T02:49:26.186Z,3.75
2018-02-03T02:50:26.167Z,3.76
2018-02-03T02:51:26.167Z,3.75
2018-02-03T02:52:26.126Z,3.86
2018-02-03T02:53:26.111Z,3.80
2018-02-03T02:54:26.094Z,3.80
2018-02-03T02:55:26.072Z,3.84
2018-02-03T02:56:26.054Z,3.79
2018-02-03T02:57:26.054Z,3.70
2018-02-03T02:58:26.013Z,3.68
2018-02-03T02:59:26.002Z,3.66
2018-02-03T03:00:25.980Z,3.70
2018-02-03T03:01:25.957Z,3.70
2018-02-03T03:02:25.942Z,3.66
2018-02-03T03:03:25.944Z,3.68
2018-02-03T03:04:25.907Z,3.69
2018-02-03T03:05:25.886Z,3.70
2018-02-03T03:06:25.867Z,3.75
2018-02-03T03:07:25.851Z,3.75
2018-02-03T03:08:25.877Z,3.69
2018-02-03T03:09:25.812Z,3.62
2018-02-03T03:10:25.787Z,3.66
2018-02-03T03:11:25.777Z,3.72
2018-02-03T03:12:25.761Z,3.72
2018-02-03T03:13:25.738Z,3.68
2018-02-03T03:14:25.736Z,3.65
2018-02-03T03:15:25.699Z,3.80
2018-02-03T03:16:25.686Z,3.65
2018-02-03T03:17:25.659Z,3.68
2018-02-03T03:18:25.660Z,3.69
2018-02-03T03:19:25.622Z,3.72
2018-02-03T03:20:25.623Z,3.72
2018-02-03T03:21:25.589Z,3.61
2018-02-03T03:22:25.571Z,3.60
2018-02-03T03:23:25.560Z,3.60
2018-02-03T03:24:25.550Z,3.68
2018-02-03T03:25:25.531Z,3.60
2018-02-03T03:26:25.513Z,3.54
2018-02-03T03:27:25.486Z,3.58
2018-02-03T03:28:25.464Z,3.57
2018-02-03T03:29:25.442Z,3.65
2018-02-03T03:30:25.438Z,3.57
2018-02-03T03:31:25.412Z,3.60
2018-02-03T03:32:25.384Z,3.58
2018-02-03T03:33:25.365Z,3.62
2018-02-03T03:34:25.349Z,3.61
2018-02-03T03:35:25.345Z,3.55
2018-02-03T03:36:25.307Z,3.55
2018-02-03T03:37:25.289Z,3.61
2018-02-03T03:38:25.267Z,3.55
2018-02-03T03:39:25.258Z,3.61
2018-02-03T03:40:25.263Z,3.58
2018-02-03T03:41:25.214Z,3.61
2018-02-03T03:42:25.220Z,3.61
2018-02-03T03:43:25.184Z,3.61
2018-02-03T03:44:25.161Z,3.60
2018-02-03T03:45:25.136Z,3.62
2018-02-03T03:46:25.136Z,3.58
2018-02-03T03:47:25.108Z,3.58
2018-02-03T03:48:25.085Z,3.57
2018-02-03T03:49:25.069Z,3.50
2018-02-03T03:50:25.041Z,3.58
2018-02-03T03:51:25.047Z,3.54
2018-02-03T03:52:25.008Z,3.51
2018-02-03T03:53:25.048Z,3.52
2018-02-03T03:54:24.984Z,3.51
2018-02-03T03:55:24.951Z,3.47
2018-02-03T03:56:24.935Z,3.47
2018-02-03T03:57:24.927Z,3.40
2018-02-03T03:58:24.895Z,3.40
2018-02-03T03:59:24.874Z,3.47
2018-02-03T04:00:24.857Z,3.50
2018-02-03T04:01:24.841Z,3.45
2018-02-03T04:02:24.850Z,3.47
2018-02-03T04:03:24.804Z,3.47
2018-02-03T04:04:24.787Z,3.48
2018-02-03T04:05:24.769Z,3.40
2018-02-03T04:06:24.748Z,3.43
2018-02-03T04:07:24.734Z,3.42
2018-02-03T04:08:24.738Z,3.43
2018-02-03T04:09:24.713Z,3.35
2018-02-03T04:10:24.677Z,3.36
2018-02-03T04:11:24.649Z,3.39
2018-02-03T04:12:24.635Z,3.32
2018-02-03T04:13:24.619Z,3.35
2018-02-03T04:14:24.596Z,3.39
2018-02-03T04:15:45.584Z,3.35
2018-02-03T04:16:24.562Z,3.35
2018-02-03T04:17:24.542Z,3.32
2018-02-03T04:18:24.520Z,3.39
2018-02-03T04:19:24.500Z,3.29
2018-02-03T04:20:24.497Z,3.35
2018-02-03T04:21:24.465Z,3.35
2018-02-03T04:22:24.450Z,3.24
2018-02-03T04:23:24.423Z,3.24
2018-02-03T04:24:24.410Z,3.21
2018-02-03T04:25:24.406Z,3.26
2018-02-03T04:26:24.388Z,3.21
2018-02-03T04:27:24.362Z,3.24
2018-02-03T04:28:24.336Z,3.35
2018-02-03T04:29:24.316Z,3.24
2018-02-03T04:30:24.312Z,3.29
2018-02-03T04:31:24.300Z,3.33
2018-02-03T04:32:24.260Z,3.24
2018-02-03T04:33:24.244Z,3.33
2018-02-03T04:34:24.224Z,3.20
2018-02-03T04:35:24.205Z,3.23
2018-02-03T04:36:24.185Z,3.26
2018-02-03T04:37:24.184Z,3.26
2018-02-03T04:38:24.148Z,3.21
2018-02-03T04:39:24.130Z,3.28
2018-02-03T04:40:24.113Z,3.32
2018-02-03T04:41:24.094Z,3.26
2018-02-03T04:42:24.093Z,3.26
2018-02-03T04:43:24.054Z,3.24
2018-02-03T04:44:24.047Z,3.24
2018-02-03T04:45:24.075Z,3.18
2018-02-03T04:46:24.019Z,3.13
2018-02-03T04:47:23.994Z,3.13
2018-02-03T04:48:23.968Z,3.14
2018-02-03T04:49:23.943Z,3.13
2018-02-03T04:50:23.930Z,3.11
2018-02-03T04:51:23.903Z,3.13
2018-02-03T04:52:23.889Z,3.11
2018-02-03T04:54:55.894Z,3.03
2018-02-03T04:55:55.857Z,3.14
2018-02-03T04:56:55.847Z,3.17
2018-02-03T04:57:55.822Z,3.11
2018-02-03T04:58:55.798Z,3.02
2018-02-03T04:59:55.794Z,3.13
2018-02-03T05:00:55.760Z,3.02
2018-02-03T05:01:55.759Z,3.17
2018-02-03T05:02:55.724Z,3.11
2018-02-03T05:03:55.721Z,3.06
2018-02-03T05:04:55.686Z,3.08
2018-02-03T05:05:55.668Z,3.00
2018-02-03T05:06:55.647Z,3.06
2018-02-03T05:07:55.641Z,3.17
2018-02-03T05:08:55.628Z,3.13
2018-02-03T05:09:55.596Z,3.13
2018-02-03T05:10:55.618Z,3.06
2018-02-03T05:11:55.565Z,3.10
2018-02-03T05:12:55.566Z,3.05
2018-02-03T05:13:55.536Z,3.14
2018-02-03T05:14:55.509Z,3.11
2018-02-03T05:15:55.486Z,3.10
2018-02-03T05:16:55.487Z,3.10
2018-02-03T05:17:55.461Z,3.14
2018-02-03T05:18:55.428Z,3.13
2018-02-03T05:19:55.418Z,3.11
2018-02-03T05:20:55.406Z,3.10
2018-02-03T05:21:55.389Z,3.06
2018-02-03T05:22:55.352Z,3.11
2018-02-03T05:23:55.333Z,3.11
2018-02-03T05:24:55.322Z,3.14
2018-02-03T05:25:55.292Z,3.11
2018-02-03T05:26:55.278Z,3.17
2018-02-03T05:27:55.278Z,3.05
2018-02-03T05:28:55.240Z,3.08
2018-02-03T05:29:55.238Z,3.13
2018-02-03T05:30:55.220Z,3.11
2018-02-03T05:31:55.182Z,3.03
2018-02-03T05:32:55.161Z,3.13
2018-02-03T05:33:55.146Z,3.13
2018-02-03T05:34:55.130Z,3.18
2018-02-03T05:35:55.130Z,3.10
2018-02-03T05:36:55.087Z,3.14
2018-02-03T05:37:55.072Z,3.06
2018-02-03T05:38:55.054Z,3.14
2018-02-03T05:39:55.032Z,3.11
2018-02-03T05:40:55.017Z,3.13
2018-02-03T05:41:55.013Z,3.18
2018-02-03T05:42:54.977Z,3.20
2018-02-03T05:43:54.956Z,3.21
2018-02-03T05:44:54.953Z,3.18
2018-02-03T05:45:54.921Z,3.24
2018-02-03T05:46:54.897Z,3.28
2018-02-03T05:47:54.881Z,3.24
2018-02-03T05:48:54.862Z,3.29
2018-02-03T05:49:54.860Z,3.24
2018-02-03T05:50:54.843Z,3.29
2018-02-03T05:51:54.821Z,3.31
2018-02-03T05:52:54.788Z,3.28
2018-02-03T05:53:54.767Z,3.26
2018-02-03T05:54:54.766Z,3.24
2018-02-03T05:55:54.732Z,3.31
2018-02-03T05:56:54.712Z,3.21
2018-02-03T05:57:54.693Z,3.21
2018-02-03T05:58:54.669Z,3.31
2018-02-03T05:59:54.669Z,3.29
2018-02-03T06:00:54.635Z,3.24
2018-02-03T06:01:54.617Z,3.18
2018-02-03T06:03:15.613Z,3.08
2018-02-03T06:03:54.571Z,3.13
2018-02-03T06:04:54.580Z,3.13
2018-02-03T06:05:54.551Z,3.08
2018-02-03T06:06:54.519Z,3.05
2018-02-03T06:07:54.518Z,2.99
2018-02-03T06:08:54.481Z,3.10
2018-02-03T06:09:54.461Z,3.03
2018-02-03T06:10:54.442Z,3.10
2018-02-03T06:11:54.423Z,3.00
2018-02-03T06:12:54.405Z,3.10
2018-02-03T06:13:54.405Z,3.02
2018-02-03T06:14:54.366Z,3.10
2018-02-03T06:15:54.343Z,3.10
2018-02-03T06:16:54.327Z,3.05
2018-02-03T06:17:54.309Z,3.08
2018-02-03T06:18:54.305Z,3.08
2018-02-03T06:19:54.270Z,2.99
2018-02-03T06:20:54.247Z,2.99
2018-02-03T06:21:54.235Z,3.10
2018-02-03T06:22:54.208Z,2.99
2018-02-03T06:23:54.193Z,3.06
2018-02-03T06:24:54.188Z,3.10
2018-02-03T06:25:54.159Z,3.14
2018-02-03T06:26:54.130Z,3.13
2018-02-03T06:27:54.111Z,3.15
2018-02-03T06:28:54.111Z,3.08
2018-02-03T06:29:54.082Z,3.10
2018-02-03T06:30:54.059Z,3.03
2018-02-03T06:31:54.037Z,3.10
2018-02-03T06:32:54.012Z,3.11
2018-02-03T06:33:54.005Z,3.08
2018-02-03T06:34:54.146Z,3.08
2018-02-03T06:35:53.957Z,3.03
2018-02-03T06:36:53.935Z,3.17
2018-02-03T06:37:53.930Z,3.08
2018-02-03T06:38:53.915Z,3.10
2018-02-03T06:39:56.768Z,3.06
2018-02-03T06:40:53.865Z,3.15
2018-02-03T06:41:53.853Z,3.10
2018-02-03T06:42:53.823Z,3.14
2018-02-03T06:43:53.802Z,3.20
2018-02-03T06:44:53.801Z,3.11
2018-02-03T06:45:53.787Z,3.21
2018-02-03T06:46:53.752Z,3.18
2018-02-03T06:47:53.728Z,3.24
2018-02-03T06:48:53.730Z,3.14
2018-02-03T06:49:53.773Z,3.10
2018-02-03T06:50:53.680Z,3.18
2018-02-03T06:51:53.647Z,3.05
2018-02-03T06:52:53.633Z,3.00
2018-02-03T06:53:53.621Z,3.08
2018-02-03T06:54:53.588Z,3.08
2018-02-03T06:55:53.584Z,3.14
2018-02-03T06:56:53.553Z,3.02
2018-02-03T06:57:53.527Z,3.08
2018-02-03T06:58:53.532Z,2.99
2018-02-03T06:59:53.533Z,3.08
2018-02-03T07:00:53.470Z,3.05
2018-02-03T07:01:53.473Z,3.03
2018-02-03T07:02:53.432Z,3.05
2018-02-03T07:03:53.415Z,3.10
2018-02-03T07:04:53.396Z,3.13
2018-02-03T07:05:53.380Z,3.17
2018-02-03T07:06:53.358Z,3.11
2018-02-03T07:07:53.351Z,3.08
2018-02-03T07:08:53.318Z,3.02
2018-02-03T07:09:53.293Z,3.05
2018-02-03T07:10:53.278Z,3.02
2018-02-03T07:11:53.257Z,3.00
2018-02-03T07:12:53.238Z,2.99
2018-02-03T07:13:53.231Z,2.96
2018-02-03T07:14:53.193Z,2.97
2018-02-03T07:15:53.179Z,2.93
2018-02-03T07:16:53.159Z,2.96
2018-02-03T07:17:53.139Z,3.06
2018-02-03T07:18:53.130Z,2.97
2018-02-03T07:19:53.094Z,3.10
2018-02-03T07:20:53.082Z,3.08
2018-02-03T07:21:53.080Z,3.14
2018-02-03T07:22:53.043Z,3.17
2018-02-03T07:23:53.020Z,3.26
2018-02-03T07:24:53.027Z,3.28
2018-02-03T07:25:52.987Z,3.26
2018-02-03T07:26:52.968Z,3.32
2018-02-03T07:27:52.949Z,3.31
2018-02-03T07:28:52.929Z,3.32
2018-02-03T07:29:53.545Z,3.26
2018-02-03T07:30:52.901Z,3.36
2018-02-03T07:31:52.870Z,3.29
2018-02-03T07:32:52.851Z,3.31
2018-02-03T07:33:52.835Z,3.21
2018-02-03T07:34:52.818Z,3.13
2018-02-03T07:35:52.809Z,3.13
2018-02-03T07:36:52.792Z,3.15
2018-02-03T07:37:52.754Z,3.11
2018-02-03T07:38:52.755Z,3.11
2018-02-03T07:39:52.711Z,3.11
2018-02-03T07:40:52.719Z,3.13
2018-02-03T07:41:52.679Z,3.13
2018-02-03T07:42:52.660Z,3.18
2018-02-03T07:43:52.639Z,3.18
2018-02-03T07:44:52.620Z,3.18
2018-02-03T07:45:52.659Z,3.23
2018-02-03T07:46:52.583Z,3.14
2018-02-03T07:47:52.568Z,3.10
2018-02-03T07:48:52.554Z,3.23
2018-02-03T07:49:52.543Z,3.28
2018-02-03T07:50:52.520Z,3.26
2018-02-03T07:51:52.487Z,3.26
2018-02-03T07:52:52.464Z,3.28
2018-02-03T07:53:52.448Z,3.18
2018-02-03T07:54:52.430Z,3.32
2018-02-03T07:55:52.414Z,3.33
2018-02-03T07:56:52.410Z,3.39
2018-02-03T07:57:52.369Z,3.33
2018-02-03T07:58:52.352Z,3.42
2018-02-03T07:59:52.337Z,3.42
2018-02-03T08:00:52.320Z,3.40
2018-02-03T08:01:52.296Z,3.40
2018-02-03T08:02:52.289Z,3.54
2018-02-03T08:03:53.049Z,3.43
2018-02-03T08:04:52.238Z,3.40
2018-02-03T08:05:52.224Z,3.36
2018-02-03T08:06:52.209Z,3.32
2018-02-03T08:08:13.194Z,3.35
2018-02-03T08:08:52.175Z,3.33
2018-02-03T08:09:52.144Z,3.36
2018-02-03T08:10:52.127Z,3.40
2018-02-03T08:11:52.099Z,3.35
2018-02-03T08:12:52.101Z,3.35
2018-02-03T08:13:52.085Z,3.47
2018-02-03T08:14:52.061Z,3.39
2018-02-03T08:15:52.031Z,3.40
2018-02-03T08:16:52.008Z,3.36
2018-02-03T08:17:51.987Z,3.40
2018-02-03T08:18:51.971Z,3.43
2018-02-03T08:19:51.950Z,3.48
2018-02-03T08:20:51.960Z,3.50
2018-02-03T08:21:51.914Z,3.52
2018-02-03T08:22:51.896Z,3.52
2018-02-03T08:23:51.872Z,3.60
2018-02-03T08:26:43.094Z,3.61
2018-02-03T08:27:23.856Z,3.60
2018-02-03T08:28:23.839Z,3.60
2018-02-03T08:29:23.823Z,3.58
2018-02-03T08:30:23.818Z,3.61
2018-02-03T08:31:23.784Z,3.68
2018-02-03T08:32:23.766Z,3.62
2018-02-03T08:33:24.537Z,3.61
2018-02-03T08:34:23.722Z,3.65
2018-02-03T08:35:23.707Z,3.58
2018-02-03T08:36:23.706Z,3.60
2018-02-03T08:37:23.682Z,3.65
2018-02-03T08:38:23.669Z,3.57
2018-02-03T08:39:23.640Z,3.65
2018-02-03T08:40:23.615Z,3.69
2018-02-03T08:41:23.591Z,3.68
2018-02-03T08:42:23.573Z,3.68
2018-02-03T08:43:23.555Z,3.73
2018-02-03T08:44:23.550Z,3.83
2018-02-03T08:45:23.511Z,3.80
2018-02-03T08:46:23.514Z,3.76
2018-02-03T08:47:23.480Z,3.75
2018-02-03T08:48:23.460Z,3.78
2018-02-03T08:49:23.457Z,3.88
2018-02-03T08:50:23.437Z,3.87
2018-02-03T08:51:23.396Z,3.87
2018-02-03T08:52:23.382Z,3.96
2018-02-03T08:53:23.368Z,3.96
2018-02-03T08:54:23.349Z,4.00
2018-02-03T08:55:23.342Z,4.00
2018-02-03T08:56:23.324Z,4.02
2018-02-03T08:57:23.291Z,4.11
2018-02-03T08:58:23.282Z,4.00
2018-02-03T08:59:23.251Z,4.09
2018-02-03T09:00:23.230Z,4.09
2018-02-03T09:01:23.252Z,4.12
2018-02-03T09:02:23.191Z,4.12
2018-02-03T09:03:23.175Z,4.15
2018-02-03T09:04:23.156Z,4.05
2018-02-03T09:05:23.134Z,4.23
2018-02-03T09:06:23.120Z,4.08
2018-02-03T09:07:23.113Z,4.11
2018-02-03T09:08:23.081Z,4.16
2018-02-03T09:09:23.056Z,4.20
2018-02-03T09:10:23.041Z,4.22
2018-02-03T09:11:23.025Z,4.24
2018-02-03T09:12:23.022Z,4.18
2018-02-03T09:13:22.988Z,4.26
2018-02-03T09:14:22.971Z,4.27
2018-02-03T09:15:22.957Z,4.24
2018-02-03T09:16:22.931Z,4.27
2018-02-03T09:17:22.930Z,4.32
2018-02-03T09:18:22.891Z,4.27
2018-02-03T09:19:22.872Z,4.29
2018-02-03T09:20:22.857Z,4.33
2018-02-03T09:21:22.837Z,4.34
2018-02-03T09:22:22.844Z,4.42
2018-02-03T09:23:22.815Z,4.45
2018-02-03T09:24:22.785Z,4.50
2018-02-03T09:25:22.761Z,4.44
2018-02-03T09:26:22.770Z,4.42
2018-02-03T09:27:22.726Z,4.50
2018-02-03T09:28:22.727Z,4.55
2018-02-03T09:29:22.690Z,4.60
2018-02-03T09:30:22.665Z,4.58
2018-02-03T09:31:22.652Z,4.52
2018-02-03T09:32:22.644Z,4.42
2018-02-03T09:33:22.624Z,4.40
2018-02-03T09:34:22.591Z,4.42
2018-02-03T09:35:22.583Z,4.23
2018-02-03T09:36:22.558Z,4.24
2018-02-03T09:37:22.544Z,4.20
2018-02-03T09:38:22.527Z,4.20
2018-02-03T09:39:22.514Z,4.12
2018-02-03T09:40:22.498Z,4.24
2018-02-03T09:41:22.462Z,4.26
2018-02-03T09:42:22.448Z,4.37
2018-02-03T09:43:22.424Z,4.51
2018-02-03T09:44:22.424Z,4.66
2018-02-03T09:45:22.389Z,4.75
2018-02-03T09:46:22.372Z,4.94
2018-02-03T09:47:22.352Z,4.78
2018-02-03T09:48:22.334Z,4.94
2018-02-03T09:49:22.334Z,4.91
2018-02-03T09:50:22.310Z,4.85
2018-02-03T09:51:22.280Z,4.80
2018-02-03T09:52:22.276Z,4.88
2018-02-03T09:53:22.244Z,4.82
2018-02-03T09:54:22.245Z,4.82
2018-02-03T09:55:22.202Z,4.78
2018-02-03T09:56:22.186Z,4.89
2018-02-03T09:57:22.165Z,4.99
2018-02-03T09:58:22.153Z,5.15
2018-02-03T09:59:22.130Z,5.56
2018-02-03T10:00:22.132Z,5.71
2018-02-03T10:01:22.092Z,5.61
2018-02-03T10:02:22.074Z,5.71
2018-02-03T10:03:22.055Z,5.79
2018-02-03T10:04:22.040Z,5.81
2018-02-03T10:05:22.020Z,5.75
2018-02-03T10:06:22.017Z,5.68
2018-02-03T10:07:21.985Z,5.46
2018-02-03T10:08:21.963Z,5.46
2018-02-03T10:09:21.953Z,5.56
2018-02-03T10:10:21.948Z,5.57
2018-02-03T10:11:21.910Z,5.63
2018-02-03T10:12:21.903Z,5.89
2018-02-03T10:13:21.874Z,5.85
2018-02-03T10:14:21.858Z,5.68
2018-02-03T10:15:21.858Z,5.54
2018-02-03T10:16:21.822Z,5.39
2018-02-03T10:17:21.804Z,5.46
2018-02-03T10:18:21.787Z,5.33
2018-02-03T10:19:21.774Z,5.38
2018-02-03T10:20:21.751Z,5.33
2018-02-03T10:21:21.755Z,5.45
2018-02-03T10:22:21.712Z,5.49
2018-02-03T10:23:21.695Z,5.48
2018-02-03T10:24:21.680Z,5.38
2018-02-03T10:25:21.663Z,5.58
2018-02-03T10:26:21.644Z,5.56
2018-02-03T10:27:21.640Z,5.67
2018-02-03T10:28:21.616Z,5.75
2018-02-03T10:29:21.591Z,5.83
2018-02-03T10:30:21.574Z,5.90
2018-02-03T10:31:21.548Z,5.91
2018-02-03T10:32:21.551Z,6.06
2018-02-03T10:33:21.521Z,6.17
2018-02-03T10:34:21.499Z,6.08
2018-02-03T10:35:21.484Z,6.18
2018-02-03T10:36:21.473Z,6.21
2018-02-03T10:37:21.473Z,6.46
2018-02-03T10:38:21.445Z,6.48
2018-02-03T10:39:21.421Z,6.34
2018-02-03T10:40:21.396Z,6.11
2018-02-03T10:41:21.475Z,6.00
2018-02-03T10:42:21.357Z,6.00
2018-02-03T10:43:21.345Z,5.97
2018-02-03T10:44:21.337Z,6.06
2018-02-03T10:45:21.353Z,6.21
2018-02-03T10:46:21.290Z,6.15
2018-02-03T10:47:21.275Z,6.00
2018-02-03T10:48:21.255Z,6.08
2018-02-03T10:49:21.253Z,6.06
2018-02-03T10:50:21.232Z,6.11
2018-02-03T10:51:21.197Z,6.18
2018-02-03T10:52:21.193Z,6.03
2018-02-03T10:53:21.172Z,6.06
2018-02-03T10:54:21.165Z,5.99
2018-02-03T10:55:21.136Z,5.93
2018-02-03T10:56:21.120Z,6.03
2018-02-03T10:57:21.103Z,5.99
2018-02-03T10:58:21.079Z,6.08
2018-02-03T10:59:21.082Z,5.97
2018-02-03T11:00:21.048Z,6.17
2018-02-03T11:01:21.039Z,6.14
2018-02-03T11:02:21.017Z,6.25
2018-02-03T11:03:20.994Z,6.17
2018-02-03T11:04:20.996Z,6.18
2018-02-03T11:05:20.967Z,6.19
2018-02-03T11:06:20.938Z,6.30
2018-02-03T11:07:20.926Z,6.25
2018-02-03T11:08:20.911Z,5.97
2018-02-03T11:09:20.908Z,6.11
2018-02-03T11:10:20.881Z,6.22
2018-02-03T11:11:20.869Z,6.14
2018-02-03T11:12:20.841Z,6.30
2018-02-03T11:13:20.831Z,6.25
2018-02-03T11:14:20.808Z,6.19
2018-02-03T11:15:20.785Z,6.25
2018-02-03T11:16:20.786Z,6.19
2018-02-03T11:17:20.770Z,6.34
2018-02-03T11:18:20.746Z,6.30
2018-02-03T11:19:20.723Z,6.19
2018-02-03T11:20:20.704Z,6.31
2018-02-03T11:21:20.681Z,6.31
2018-02-03T11:22:20.685Z,6.21
2018-02-03T11:23:20.655Z,6.31
2018-02-03T11:24:20.632Z,6.33
2018-02-03T11:25:20.622Z,6.30
2018-02-03T11:26:20.633Z,6.18
2018-02-03T11:27:20.595Z,6.27
2018-02-03T11:28:20.565Z,6.19
2018-02-03T11:29:20.547Z,6.22
2018-02-03T11:30:20.532Z,6.30
2018-02-03T11:31:20.511Z,6.19
2018-02-03T11:32:20.517Z,6.38
2018-02-03T11:33:20.482Z,6.36
2018-02-03T11:34:20.461Z,6.36
2018-02-03T11:35:20.442Z,6.27
2018-02-03T11:36:20.431Z,6.19
2018-02-03T11:37:20.415Z,6.25
2018-02-03T11:38:20.417Z,6.28
2018-02-03T11:39:20.386Z,6.28
2018-02-03T11:40:20.359Z,6.28
2018-02-03T11:41:20.344Z,6.28
2018-02-03T11:42:20.325Z,6.28
2018-02-03T11:43:20.313Z,6.36
2018-02-03T11:44:20.322Z,6.25
2018-02-03T11:45:20.271Z,6.22
2018-02-03T11:46:20.259Z,6.11
2018-02-03T11:47:20.242Z,5.96
2018-02-03T11:48:20.226Z,6.00
2018-02-03T11:49:20.203Z,5.96
2018-02-03T11:50:20.204Z,5.94
2018-02-03T11:51:20.174Z,5.86
2018-02-03T11:52:20.160Z,6.08
2018-02-03T11:53:20.142Z,6.03
2018-02-03T11:54:20.119Z,6.08
2018-02-03T11:55:20.108Z,5.99
2018-02-03T11:56:20.102Z,6.12
2018-02-03T11:57:20.071Z,6.12
2018-02-03T11:58:20.051Z,6.19
2018-02-03T11:59:20.035Z,6.31
2018-02-03T12:00:20.031Z,6.28
2018-02-03T12:01:20.003Z,6.17
2018-02-03T12:02:19.993Z,6.11
2018-02-03T12:03:20.000Z,6.01
2018-02-03T12:04:19.949Z,6.09
2018-02-03T12:05:19.936Z,6.14
2018-02-03T12:06:19.925Z,6.08
2018-02-03T12:07:19.917Z,6.14
2018-02-03T12:08:19.879Z,6.03
2018-02-03T12:09:19.875Z,6.00
2018-02-03T12:10:19.845Z,6.11
2018-02-03T12:11:19.828Z,6.21
2018-02-03T12:12:19.824Z,6.38
2018-02-03T12:13:19.818Z,6.54
2018-02-03T12:14:19.779Z,6.71
2018-02-03T12:15:19.809Z,6.61
2018-02-03T12:16:19.754Z,6.70
2018-02-03T12:17:19.727Z,6.70
2018-02-03T12:18:19.711Z,6.67
2018-02-03T12:19:19.754Z,6.66
2018-02-03T12:20:19.674Z,6.59
2018-02-03T12:21:19.656Z,6.44
2018-02-03T12:22:19.647Z,6.46
2018-02-03T12:23:19.633Z,6.40
2018-02-03T12:24:19.607Z,6.28
2018-02-03T12:25:19.625Z,6.25
2018-02-03T12:26:19.572Z,6.06
2018-02-03T12:27:19.564Z,6.18
2018-02-03T12:28:19.558Z,6.25
2018-02-03T12:29:19.534Z,6.01
2018-02-03T12:30:19.505Z,6.06
2018-02-03T12:31:19.504Z,6.04
2018-02-03T12:32:19.472Z,6.08
2018-02-03T12:33:19.453Z,6.14
2018-02-03T12:34:19.459Z,6.18
2018-02-03T12:35:19.432Z,6.25
2018-02-03T12:36:19.435Z,6.17
2018-02-03T12:37:19.381Z,6.22
2018-02-03T12:38:19.380Z,6.15
2018-02-03T12:39:19.375Z,6.25
2018-02-03T12:40:19.337Z,6.21
2018-02-03T12:41:19.327Z,6.31
2018-02-03T12:42:19.299Z,6.37
2018-02-03T12:43:19.287Z,6.36
2018-02-03T12:44:19.295Z,6.31
2018-02-03T12:45:19.252Z,6.40
2018-02-03T12:46:19.233Z,6.34
2018-02-03T12:47:19.214Z,6.46
2018-02-03T12:48:19.198Z,6.43
2018-02-03T12:49:19.177Z,6.44
2018-02-03T12:50:19.180Z,6.31
2018-02-03T12:51:19.148Z,6.38
2018-02-03T12:52:19.127Z,6.36
2018-02-03T12:53:19.112Z,6.19
2018-02-03T12:54:19.094Z,6.22
2018-02-03T12:55:19.092Z,6.12
2018-02-03T12:56:19.059Z,6.09
2018-02-03T12:57:19.042Z,6.08
2018-02-03T12:58:19.050Z,6.00
2018-02-03T12:59:19.532Z,5.86
2018-02-03T13:00:19.003Z,5.99
2018-02-03T13:01:18.971Z,5.81
2018-02-03T13:02:18.964Z,5.78
2018-02-03T13:03:18.948Z,5.71
2018-02-03T13:04:18.922Z,5.60
2018-02-03T13:05:18.911Z,5.64
2018-02-03T13:06:18.886Z,5.61
2018-02-03T13:07:18.866Z,5.60
2018-02-03T13:08:18.851Z,5.51
2018-02-03T13:09:18.844Z,5.57
2018-02-03T13:10:18.832Z,5.58
2018-02-03T13:11:18.806Z,5.54
2018-02-03T13:12:18.777Z,5.48
2018-02-03T13:13:18.764Z,5.45
2018-02-03T13:14:18.746Z,5.49
2018-02-03T13:15:18.742Z,5.49
2018-02-03T13:16:18.707Z,5.39
2018-02-03T13:17:18.695Z,5.27
2018-02-03T13:18:18.674Z,5.24
2018-02-03T13:19:18.668Z,5.33
2018-02-03T13:20:18.655Z,5.28
2018-02-03T13:21:18.626Z,5.17